sensor_id;sensor_type;location;lat;lon;timestamp;P1;durP1;ratioP1;P2;durP2;ratioP2
29214;SDS011;16252;49.816;7.964;2023-04-25T00:01:01;2.13;;;1.92;;
29214;SDS011;16252;49.816;7.964;2023-04-25T00:03:27;2.78;;;2.17;;
29214;SDS011;16252;49.816;7.964;2023-04-25T00:05:54;2.22;;;2.03;;
29214;SDS011;16252;49.816;7.964;2023-04-25T00:08:21;2.25;;;2.05;;
29214;SDS011;16252;49.816;7.964;2023-04-25T00:10:47;2.47;;;2.13;;
29214;SDS011;16252;49.816;7.964;2023-04-25T00:13:13;2.97;;;2.03;;
29214;SDS011;16252;49.816;7.964;2023-04-25T00:15:39;2.38;;;1.90;;
29214;SDS011;16252;49.816;7.964;2023-04-25T00:18:06;2.92;;;1.98;;
29214;SDS011;16252;49.816;7.964;2023-04-25T00:20:31;2.28;;;1.90;;
29214;SDS011;16252;49.816;7.964;2023-04-25T00:22:57;2.55;;;2.08;;
29214;SDS011;16252;49.816;7.964;2023-04-25T00:25:22;2.72;;;1.92;;
29214;SDS011;16252;49.816;7.964;2023-04-25T00:27:48;2.17;;;1.75;;
29214;SDS011;16252;49.816;7.964;2023-04-25T00:30:13;2.72;;;2.10;;
29214;SDS011;16252;49.816;7.964;2023-04-25T00:32:39;2.13;;;1.70;;
29214;SDS011;16252;49.816;7.964;2023-04-25T00:35:04;2.30;;;2.10;;
29214;SDS011;16252;49.816;7.964;2023-04-25T00:37:30;2.63;;;1.88;;
29214;SDS011;16252;49.816;7.964;2023-04-25T00:39:57;2.13;;;1.80;;
29214;SDS011;16252;49.816;7.964;2023-04-25T00:42:23;2.65;;;2.25;;
29214;SDS011;16252;49.816;7.964;2023-04-25T00:44:50;1.98;;;1.75;;
29214;SDS011;16252;49.816;7.964;2023-04-25T00:47:17;1.85;;;1.75;;
29214;SDS011;16252;49.816;7.964;2023-04-25T00:49:42;2.17;;;1.95;;
29214;SDS011;16252;49.816;7.964;2023-04-25T00:52:07;2.40;;;1.98;;
29214;SDS011;16252;49.816;7.964;2023-04-25T00:54:33;2.20;;;1.90;;
29214;SDS011;16252;49.816;7.964;2023-04-25T00:56:58;2.72;;;2.05;;
29214;SDS011;16252;49.816;7.964;2023-04-25T00:59:25;2.30;;;2.03;;
29214;SDS011;16252;49.816;7.964;2023-04-25T01:01:52;2.42;;;2.10;;
29214;SDS011;16252;49.816;7.964;2023-04-25T01:04:17;2.80;;;1.77;;
29214;SDS011;16252;49.816;7.964;2023-04-25T02:13:59;2.53;;;2.05;;
29214;SDS011;16252;49.816;7.964;2023-04-25T02:16:24;3.08;;;2.20;;
29214;SDS011;16252;49.816;7.964;2023-04-25T02:18:50;2.15;;;1.95;;
29214;SDS011;16252;49.816;7.964;2023-04-25T02:21:17;3.00;;;2.70;;
29214;SDS011;16252;49.816;7.964;2023-04-25T02:23:43;3.75;;;2.60;;
29214;SDS011;16252;49.816;7.964;2023-04-25T02:26:10;3.78;;;2.92;;
29214;SDS011;16252;49.816;7.964;2023-04-25T02:28:38;4.85;;;2.85;;
29214;SDS011;16252;49.816;7.964;2023-04-25T02:31:03;3.60;;;3.10;;
29214;SDS011;16252;49.816;7.964;2023-04-25T02:33:28;2.90;;;2.50;;
29214;SDS011;16252;49.816;7.964;2023-04-25T02:35:54;2.67;;;2.33;;
29214;SDS011;16252;49.816;7.964;2023-04-25T02:38:19;2.78;;;2.35;;
29214;SDS011;16252;49.816;7.964;2023-04-25T02:40:44;3.58;;;2.55;;
29214;SDS011;16252;49.816;7.964;2023-04-25T02:43:09;3.05;;;2.58;;
29214;SDS011;16252;49.816;7.964;2023-04-25T02:45:35;3.00;;;2.65;;
29214;SDS011;16252;49.816;7.964;2023-04-25T02:48:00;2.60;;;2.22;;
29214;SDS011;16252;49.816;7.964;2023-04-25T02:50:26;3.42;;;2.80;;
29214;SDS011;16252;49.816;7.964;2023-04-25T02:52:51;2.72;;;2.40;;
29214;SDS011;16252;49.816;7.964;2023-04-25T02:55:17;3.00;;;2.70;;
29214;SDS011;16252;49.816;7.964;2023-04-25T02:57:42;2.42;;;2.22;;
29214;SDS011;16252;49.816;7.964;2023-04-25T03:00:07;2.90;;;2.35;;
29214;SDS011;16252;49.816;7.964;2023-04-25T03:02:33;2.60;;;2.22;;
29214;SDS011;16252;49.816;7.964;2023-04-25T03:04:58;2.75;;;2.38;;
29214;SDS011;16252;49.816;7.964;2023-04-25T03:07:24;2.80;;;2.50;;
29214;SDS011;16252;49.816;7.964;2023-04-25T03:09:49;2.50;;;2.17;;
29214;SDS011;16252;49.816;7.964;2023-04-25T03:12:14;2.50;;;2.30;;
29214;SDS011;16252;49.816;7.964;2023-04-25T03:14:40;2.95;;;2.25;;
29214;SDS011;16252;49.816;7.964;2023-04-25T03:17:05;3.03;;;2.45;;
29214;SDS011;16252;49.816;7.964;2023-04-25T03:19:30;3.13;;;2.58;;
29214;SDS011;16252;49.816;7.964;2023-04-25T03:21:56;4.88;;;2.88;;
29214;SDS011;16252;49.816;7.964;2023-04-25T03:24:21;3.20;;;2.45;;
29214;SDS011;16252;49.816;7.964;2023-04-25T03:26:46;3.83;;;2.90;;
29214;SDS011;16252;49.816;7.964;2023-04-25T03:29:12;3.75;;;3.00;;
29214;SDS011;16252;49.816;7.964;2023-04-25T03:31:37;5.25;;;2.53;;
29214;SDS011;16252;49.816;7.964;2023-04-25T03:34:02;2.75;;;2.47;;
29214;SDS011;16252;49.816;7.964;2023-04-25T03:36:28;2.95;;;2.38;;
29214;SDS011;16252;49.816;7.964;2023-04-25T03:38:53;3.53;;;2.60;;
29214;SDS011;16252;49.816;7.964;2023-04-25T03:41:18;2.80;;;2.55;;
29214;SDS011;16252;49.816;7.964;2023-04-25T03:43:43;3.60;;;2.90;;
29214;SDS011;16252;49.816;7.964;2023-04-25T03:46:09;4.80;;;2.60;;
29214;SDS011;16252;49.816;7.964;2023-04-25T03:48:34;5.07;;;3.00;;
29214;SDS011;16252;49.816;7.964;2023-04-25T03:50:59;3.92;;;2.95;;
29214;SDS011;16252;49.816;7.964;2023-04-25T03:53:25;3.17;;;2.60;;
29214;SDS011;16252;49.816;7.964;2023-04-25T03:55:50;4.85;;;2.80;;
29214;SDS011;16252;49.816;7.964;2023-04-25T03:58:16;4.88;;;3.10;;
29214;SDS011;16252;49.816;7.964;2023-04-25T04:00:41;3.65;;;3.05;;
29214;SDS011;16252;49.816;7.964;2023-04-25T04:03:07;3.72;;;2.80;;
29214;SDS011;16252;49.816;7.964;2023-04-25T04:05:32;4.20;;;3.03;;
29214;SDS011;16252;49.816;7.964;2023-04-25T04:07:58;5.43;;;3.67;;
29214;SDS011;16252;49.816;7.964;2023-04-25T04:10:23;4.65;;;4.03;;
29214;SDS011;16252;49.816;7.964;2023-04-25T04:12:48;4.78;;;3.97;;
29214;SDS011;16252;49.816;7.964;2023-04-25T04:15:14;5.65;;;3.70;;
29214;SDS011;16252;49.816;7.964;2023-04-25T04:17:39;3.58;;;3.00;;
29214;SDS011;16252;49.816;7.964;2023-04-25T04:20:05;4.60;;;3.20;;
29214;SDS011;16252;49.816;7.964;2023-04-25T04:22:32;3.47;;;2.80;;
29214;SDS011;16252;49.816;7.964;2023-04-25T04:24:57;5.07;;;3.30;;
29214;SDS011;16252;49.816;7.964;2023-04-25T04:27:22;5.57;;;3.42;;
29214;SDS011;16252;49.816;7.964;2023-04-25T04:29:48;5.22;;;4.45;;
29214;SDS011;16252;49.816;7.964;2023-04-25T04:32:14;4.97;;;3.75;;
29214;SDS011;16252;49.816;7.964;2023-04-25T04:34:40;4.93;;;3.75;;
29214;SDS011;16252;49.816;7.964;2023-04-25T04:37:06;6.55;;;3.83;;
29214;SDS011;16252;49.816;7.964;2023-04-25T04:39:32;5.30;;;3.95;;
29214;SDS011;16252;49.816;7.964;2023-04-25T04:41:58;4.43;;;3.70;;
29214;SDS011;16252;49.816;7.964;2023-04-25T04:44:23;6.97;;;4.25;;
29214;SDS011;16252;49.816;7.964;2023-04-25T04:46:50;7.10;;;4.82;;
29214;SDS011;16252;49.816;7.964;2023-04-25T04:49:15;6.18;;;4.53;;
29214;SDS011;16252;49.816;7.964;2023-04-25T04:51:40;6.72;;;4.10;;
29214;SDS011;16252;49.816;7.964;2023-04-25T04:54:06;4.07;;;3.67;;
29214;SDS011;16252;49.816;7.964;2023-04-25T04:56:31;7.38;;;3.35;;
29214;SDS011;16252;49.816;7.964;2023-04-25T04:58:57;4.60;;;3.47;;
29214;SDS011;16252;49.816;7.964;2023-04-25T05:01:32;4.90;;;3.88;;
29214;SDS011;16252;49.816;7.964;2023-04-25T05:04:03;6.25;;;4.20;;
29214;SDS011;16252;49.816;7.964;2023-04-25T05:06:30;5.25;;;3.92;;
29214;SDS011;16252;49.816;7.964;2023-04-25T05:08:56;4.82;;;3.72;;
29214;SDS011;16252;49.816;7.964;2023-04-25T05:11:22;5.78;;;4.38;;
29214;SDS011;16252;49.816;7.964;2023-04-25T05:13:49;5.65;;;4.55;;
29214;SDS011;16252;49.816;7.964;2023-04-25T05:16:16;5.38;;;4.38;;
29214;SDS011;16252;49.816;7.964;2023-04-25T05:18:41;5.55;;;4.68;;
29214;SDS011;16252;49.816;7.964;2023-04-25T05:21:10;6.70;;;4.45;;
29214;SDS011;16252;49.816;7.964;2023-04-25T05:23:35;7.28;;;5.20;;
29214;SDS011;16252;49.816;7.964;2023-04-25T05:26:00;5.97;;;4.95;;
29214;SDS011;16252;49.816;7.964;2023-04-25T05:28:26;9.88;;;5.22;;
29214;SDS011;16252;49.816;7.964;2023-04-25T05:30:51;6.55;;;4.78;;
29214;SDS011;16252;49.816;7.964;2023-04-25T05:33:17;14.23;;;4.68;;
29214;SDS011;16252;49.816;7.964;2023-04-25T05:35:58;7.43;;;5.32;;
29214;SDS011;16252;49.816;7.964;2023-04-25T05:39:01;76.68;;;36.53;;
29214;SDS011;16252;49.816;7.964;2023-04-25T05:41:26;86.65;;;39.83;;
29214;SDS011;16252;49.816;7.964;2023-04-25T05:43:51;68.82;;;34.65;;
29214;SDS011;16252;49.816;7.964;2023-04-25T05:46:17;39.83;;;20.63;;
29214;SDS011;16252;49.816;7.964;2023-04-25T05:48:42;24.40;;;13.45;;
29214;SDS011;16252;49.816;7.964;2023-04-25T05:51:08;15.98;;;9.68;;
29214;SDS011;16252;49.816;7.964;2023-04-25T05:53:38;13.73;;;8.27;;
29214;SDS011;16252;49.816;7.964;2023-04-25T05:56:11;13.15;;;7.65;;
29214;SDS011;16252;49.816;7.964;2023-04-25T05:58:38;11.70;;;6.70;;
29214;SDS011;16252;49.816;7.964;2023-04-25T06:01:06;8.57;;;5.65;;
29214;SDS011;16252;49.816;7.964;2023-04-25T06:03:31;16.20;;;5.88;;
29214;SDS011;16252;49.816;7.964;2023-04-25T06:06:03;70.95;;;33.83;;
29214;SDS011;16252;49.816;7.964;2023-04-25T06:08:30;45.90;;;20.67;;
29214;SDS011;16252;49.816;7.964;2023-04-25T06:11:01;36.28;;;16.30;;
29214;SDS011;16252;49.816;7.964;2023-04-25T06:13:26;27.98;;;13.48;;
29214;SDS011;16252;49.816;7.964;2023-04-25T06:15:52;20.02;;;9.82;;
29214;SDS011;16252;49.816;7.964;2023-04-25T06:18:17;11.68;;;7.50;;
29214;SDS011;16252;49.816;7.964;2023-04-25T06:20:42;10.82;;;5.20;;
29214;SDS011;16252;49.816;7.964;2023-04-25T06:23:07;10.63;;;5.55;;
29214;SDS011;16252;49.816;7.964;2023-04-25T06:25:33;12.00;;;6.03;;
29214;SDS011;16252;49.816;7.964;2023-04-25T06:27:58;10.20;;;4.85;;
29214;SDS011;16252;49.816;7.964;2023-04-25T06:30:26;11.27;;;4.65;;
29214;SDS011;16252;49.816;7.964;2023-04-25T06:32:54;8.40;;;4.00;;
29214;SDS011;16252;49.816;7.964;2023-04-25T06:35:20;10.32;;;3.95;;
29214;SDS011;16252;49.816;7.964;2023-04-25T06:37:45;10.13;;;4.30;;
29214;SDS011;16252;49.816;7.964;2023-04-25T06:40:10;8.23;;;3.65;;
29214;SDS011;16252;49.816;7.964;2023-04-25T06:42:36;6.97;;;4.00;;
29214;SDS011;16252;49.816;7.964;2023-04-25T06:45:04;4.05;;;3.10;;
29214;SDS011;16252;49.816;7.964;2023-04-25T06:47:30;7.25;;;3.75;;
29214;SDS011;16252;49.816;7.964;2023-04-25T06:49:55;6.38;;;3.92;;
29214;SDS011;16252;49.816;7.964;2023-04-25T06:52:21;6.00;;;3.05;;
29214;SDS011;16252;49.816;7.964;2023-04-25T06:54:46;7.68;;;3.58;;
29214;SDS011;16252;49.816;7.964;2023-04-25T06:57:14;5.88;;;3.50;;
29214;SDS011;16252;49.816;7.964;2023-04-25T06:59:40;9.70;;;3.55;;
29214;SDS011;16252;49.816;7.964;2023-04-25T07:02:05;6.40;;;3.22;;
29214;SDS011;16252;49.816;7.964;2023-04-25T07:04:31;5.55;;;3.00;;
29214;SDS011;16252;49.816;7.964;2023-04-25T07:06:56;5.97;;;2.88;;
29214;SDS011;16252;49.816;7.964;2023-04-25T07:09:25;7.35;;;2.83;;
29214;SDS011;16252;49.816;7.964;2023-04-25T07:11:53;4.85;;;2.60;;
29214;SDS011;16252;49.816;7.964;2023-04-25T07:14:18;6.78;;;2.90;;
29214;SDS011;16252;49.816;7.964;2023-04-25T07:16:44;8.15;;;3.22;;
29214;SDS011;16252;49.816;7.964;2023-04-25T07:19:12;4.13;;;2.67;;
29214;SDS011;16252;49.816;7.964;2023-04-25T07:21:37;4.45;;;2.60;;
29214;SDS011;16252;49.816;7.964;2023-04-25T07:24:03;7.32;;;2.35;;
29214;SDS011;16252;49.816;7.964;2023-04-25T07:26:28;4.15;;;2.35;;
29214;SDS011;16252;49.816;7.964;2023-04-25T07:28:54;5.90;;;2.70;;
29214;SDS011;16252;49.816;7.964;2023-04-25T07:31:19;5.75;;;2.47;;
29214;SDS011;16252;49.816;7.964;2023-04-25T07:33:45;6.78;;;2.90;;
29214;SDS011;16252;49.816;7.964;2023-04-25T07:36:13;4.38;;;2.70;;
29214;SDS011;16252;49.816;7.964;2023-04-25T07:38:40;4.38;;;2.67;;
29214;SDS011;16252;49.816;7.964;2023-04-25T07:41:05;4.10;;;2.20;;
29214;SDS011;16252;49.816;7.964;2023-04-25T07:43:30;7.57;;;2.55;;
29214;SDS011;16252;49.816;7.964;2023-04-25T07:45:56;6.72;;;2.60;;
29214;SDS011;16252;49.816;7.964;2023-04-25T07:48:22;5.68;;;2.95;;
29214;SDS011;16252;49.816;7.964;2023-04-25T07:50:47;4.18;;;2.45;;
29214;SDS011;16252;49.816;7.964;2023-04-25T07:53:13;4.88;;;2.72;;
29214;SDS011;16252;49.816;7.964;2023-04-25T07:55:38;4.25;;;2.47;;
29214;SDS011;16252;49.816;7.964;2023-04-25T07:58:05;6.32;;;2.70;;
29214;SDS011;16252;49.816;7.964;2023-04-25T08:00:31;4.80;;;2.40;;
29214;SDS011;16252;49.816;7.964;2023-04-25T08:02:56;6.53;;;2.70;;
29214;SDS011;16252;49.816;7.964;2023-04-25T08:05:22;4.00;;;2.80;;
29214;SDS011;16252;49.816;7.964;2023-04-25T08:07:47;5.25;;;2.67;;
29214;SDS011;16252;49.816;7.964;2023-04-25T08:10:12;4.82;;;2.85;;
29214;SDS011;16252;49.816;7.964;2023-04-25T08:12:37;6.95;;;3.40;;
29214;SDS011;16252;49.816;7.964;2023-04-25T08:15:03;10.77;;;3.35;;
29214;SDS011;16252;49.816;7.964;2023-04-25T08:17:30;7.47;;;2.75;;
29214;SDS011;16252;49.816;7.964;2023-04-25T08:19:55;6.72;;;2.58;;
29214;SDS011;16252;49.816;7.964;2023-04-25T08:22:21;4.25;;;2.55;;
29214;SDS011;16252;49.816;7.964;2023-04-25T08:24:47;5.90;;;3.30;;
29214;SDS011;16252;49.816;7.964;2023-04-25T08:27:12;3.20;;;2.60;;
29214;SDS011;16252;49.816;7.964;2023-04-25T08:29:37;4.63;;;2.90;;
29214;SDS011;16252;49.816;7.964;2023-04-25T08:32:03;6.22;;;2.90;;
29214;SDS011;16252;49.816;7.964;2023-04-25T08:34:28;4.80;;;2.38;;
29214;SDS011;16252;49.816;7.964;2023-04-25T08:36:53;5.57;;;2.15;;
29214;SDS011;16252;49.816;7.964;2023-04-25T08:39:19;4.63;;;2.20;;
29214;SDS011;16252;49.816;7.964;2023-04-25T08:41:45;6.72;;;2.17;;
29214;SDS011;16252;49.816;7.964;2023-04-25T08:44:11;3.42;;;1.95;;
29214;SDS011;16252;49.816;7.964;2023-04-25T08:46:40;6.03;;;2.22;;
29214;SDS011;16252;49.816;7.964;2023-04-25T08:49:08;2.90;;;1.88;;
29214;SDS011;16252;49.816;7.964;2023-04-25T08:51:34;4.88;;;2.00;;
29214;SDS011;16252;49.816;7.964;2023-04-25T08:54:09;3.10;;;1.75;;
29214;SDS011;16252;49.816;7.964;2023-04-25T08:56:36;3.92;;;1.90;;
29214;SDS011;16252;49.816;7.964;2023-04-25T08:59:03;3.42;;;1.73;;
29214;SDS011;16252;49.816;7.964;2023-04-25T09:01:29;3.42;;;1.92;;
29214;SDS011;16252;49.816;7.964;2023-04-25T09:03:54;5.15;;;1.67;;
29214;SDS011;16252;49.816;7.964;2023-04-25T09:06:22;2.83;;;2.00;;
29214;SDS011;16252;49.816;7.964;2023-04-25T09:08:49;3.17;;;1.92;;
29214;SDS011;16252;49.816;7.964;2023-04-25T09:11:15;7.20;;;2.63;;
29214;SDS011;16252;49.816;7.964;2023-04-25T09:13:40;2.67;;;1.83;;
29214;SDS011;16252;49.816;7.964;2023-04-25T09:16:06;2.95;;;1.90;;
29214;SDS011;16252;49.816;7.964;2023-04-25T09:18:32;5.35;;;1.83;;
29214;SDS011;16252;49.816;7.964;2023-04-25T09:21:09;2.90;;;1.92;;
29214;SDS011;16252;49.816;7.964;2023-04-25T09:23:40;2.65;;;1.77;;
29214;SDS011;16252;49.816;7.964;2023-04-25T09:26:06;3.65;;;1.90;;
29214;SDS011;16252;49.816;7.964;2023-04-25T09:28:32;2.58;;;1.80;;
29214;SDS011;16252;49.816;7.964;2023-04-25T09:31:00;2.58;;;1.73;;
29214;SDS011;16252;49.816;7.964;2023-04-25T09:33:29;2.80;;;1.75;;
29214;SDS011;16252;49.816;7.964;2023-04-25T09:36:06;2.83;;;1.55;;
29214;SDS011;16252;49.816;7.964;2023-04-25T09:38:40;4.28;;;2.10;;
29214;SDS011;16252;49.816;7.964;2023-04-25T09:41:07;2.78;;;1.70;;
29214;SDS011;16252;49.816;7.964;2023-04-25T09:43:33;3.78;;;2.08;;
29214;SDS011;16252;49.816;7.964;2023-04-25T09:45:58;3.60;;;2.03;;
29214;SDS011;16252;49.816;7.964;2023-04-25T09:48:25;2.42;;;1.98;;
29214;SDS011;16252;49.816;7.964;2023-04-25T09:51:05;3.95;;;2.13;;
29214;SDS011;16252;49.816;7.964;2023-04-25T09:53:40;3.85;;;2.13;;
29214;SDS011;16252;49.816;7.964;2023-04-25T09:56:10;3.00;;;1.88;;
29214;SDS011;16252;49.816;7.964;2023-04-25T09:58:37;3.97;;;2.10;;
29214;SDS011;16252;49.816;7.964;2023-04-25T10:01:05;5.30;;;2.53;;
29214;SDS011;16252;49.816;7.964;2023-04-25T10:03:33;4.60;;;2.10;;
29214;SDS011;16252;49.816;7.964;2023-04-25T10:06:00;4.50;;;2.40;;
29214;SDS011;16252;49.816;7.964;2023-04-25T10:08:32;4.57;;;2.38;;
29214;SDS011;16252;49.816;7.964;2023-04-25T10:11:00;3.58;;;2.40;;
29214;SDS011;16252;49.816;7.964;2023-04-25T10:13:27;3.22;;;2.22;;
29214;SDS011;16252;49.816;7.964;2023-04-25T10:15:54;4.22;;;2.42;;
29214;SDS011;16252;49.816;7.964;2023-04-25T10:18:20;3.88;;;2.33;;
29214;SDS011;16252;49.816;7.964;2023-04-25T10:20:46;4.72;;;3.00;;
29214;SDS011;16252;49.816;7.964;2023-04-25T10:23:12;4.05;;;2.40;;
29214;SDS011;16252;49.816;7.964;2023-04-25T10:25:40;5.75;;;3.50;;
29214;SDS011;16252;49.816;7.964;2023-04-25T10:28:07;4.13;;;2.60;;
29214;SDS011;16252;49.816;7.964;2023-04-25T10:30:32;6.57;;;2.50;;
29214;SDS011;16252;49.816;7.964;2023-04-25T10:33:00;7.53;;;2.50;;
29214;SDS011;16252;49.816;7.964;2023-04-25T10:35:29;3.28;;;2.47;;
29214;SDS011;16252;49.816;7.964;2023-04-25T10:37:59;4.65;;;2.65;;
29214;SDS011;16252;49.816;7.964;2023-04-25T10:40:24;4.10;;;2.83;;
29214;SDS011;16252;49.816;7.964;2023-04-25T10:42:51;4.47;;;2.50;;
29214;SDS011;16252;49.816;7.964;2023-04-25T10:45:21;4.20;;;2.45;;
29214;SDS011;16252;49.816;7.964;2023-04-25T10:47:46;5.13;;;2.17;;
29214;SDS011;16252;49.816;7.964;2023-04-25T10:50:14;4.32;;;2.08;;
29214;SDS011;16252;49.816;7.964;2023-04-25T10:52:41;3.80;;;2.07;;
29214;SDS011;16252;49.816;7.964;2023-04-25T10:55:06;4.57;;;2.40;;
29214;SDS011;16252;49.816;7.964;2023-04-25T10:57:35;7.65;;;2.53;;
29214;SDS011;16252;49.816;7.964;2023-04-25T11:00:13;3.67;;;2.17;;
29214;SDS011;16252;49.816;7.964;2023-04-25T11:02:45;4.07;;;2.03;;
29214;SDS011;16252;49.816;7.964;2023-04-25T11:05:16;6.18;;;2.67;;
29214;SDS011;16252;49.816;7.964;2023-04-25T11:07:50;4.45;;;2.42;;
29214;SDS011;16252;49.816;7.964;2023-04-25T11:10:17;5.35;;;2.35;;
29214;SDS011;16252;49.816;7.964;2023-04-25T11:12:43;3.35;;;2.10;;
29214;SDS011;16252;49.816;7.964;2023-04-25T11:15:10;4.50;;;2.78;;
29214;SDS011;16252;49.816;7.964;2023-04-25T11:17:35;4.22;;;2.42;;
29214;SDS011;16252;49.816;7.964;2023-04-25T11:20:01;3.97;;;2.67;;
29214;SDS011;16252;49.816;7.964;2023-04-25T11:22:31;5.13;;;2.40;;
29214;SDS011;16252;49.816;7.964;2023-04-25T11:24:56;4.18;;;2.10;;
29214;SDS011;16252;49.816;7.964;2023-04-25T11:27:22;4.65;;;2.58;;
29214;SDS011;16252;49.816;7.964;2023-04-25T11:29:49;5.47;;;2.03;;
29214;SDS011;16252;49.816;7.964;2023-04-25T11:32:15;5.60;;;2.38;;
29214;SDS011;16252;49.816;7.964;2023-04-25T11:34:42;4.85;;;2.20;;
29214;SDS011;16252;49.816;7.964;2023-04-25T11:37:09;6.55;;;2.42;;
29214;SDS011;16252;49.816;7.964;2023-04-25T11:39:37;6.35;;;2.53;;
29214;SDS011;16252;49.816;7.964;2023-04-25T11:42:03;5.00;;;2.72;;
29214;SDS011;16252;49.816;7.964;2023-04-25T11:44:32;7.75;;;3.00;;
29214;SDS011;16252;49.816;7.964;2023-04-25T11:46:57;4.55;;;2.45;;
29214;SDS011;16252;49.816;7.964;2023-04-25T11:49:22;7.68;;;3.03;;
29214;SDS011;16252;49.816;7.964;2023-04-25T11:51:49;3.30;;;2.80;;
29214;SDS011;16252;49.816;7.964;2023-04-25T11:54:15;4.78;;;3.03;;
29214;SDS011;16252;49.816;7.964;2023-04-25T11:56:44;4.80;;;2.80;;
29214;SDS011;16252;49.816;7.964;2023-04-25T11:59:10;6.25;;;3.60;;
29214;SDS011;16252;49.816;7.964;2023-04-25T12:01:36;7.25;;;2.85;;
29214;SDS011;16252;49.816;7.964;2023-04-25T12:04:10;5.35;;;3.03;;
29214;SDS011;16252;49.816;7.964;2023-04-25T12:06:40;7.32;;;3.13;;
29214;SDS011;16252;49.816;7.964;2023-04-25T12:09:08;4.32;;;2.60;;
29214;SDS011;16252;49.816;7.964;2023-04-25T12:11:43;3.80;;;2.40;;
29214;SDS011;16252;49.816;7.964;2023-04-25T12:14:09;5.38;;;2.55;;
29214;SDS011;16252;49.816;7.964;2023-04-25T12:19:14;5.30;;;2.47;;
29214;SDS011;16252;49.816;7.964;2023-04-25T12:21:43;5.28;;;2.45;;
29214;SDS011;16252;49.816;7.964;2023-04-25T12:24:27;3.72;;;2.35;;
29214;SDS011;16252;49.816;7.964;2023-04-25T12:26:53;5.93;;;2.50;;
29214;SDS011;16252;49.816;7.964;2023-04-25T12:29:25;5.13;;;2.58;;
29214;SDS011;16252;49.816;7.964;2023-04-25T12:31:53;5.78;;;2.40;;
29214;SDS011;16252;49.816;7.964;2023-04-25T12:34:20;4.47;;;2.35;;
29214;SDS011;16252;49.816;7.964;2023-04-25T12:36:46;5.03;;;2.60;;
29214;SDS011;16252;49.816;7.964;2023-04-25T12:39:17;3.70;;;2.20;;
29214;SDS011;16252;49.816;7.964;2023-04-25T12:41:47;5.50;;;2.22;;
29214;SDS011;16252;49.816;7.964;2023-04-25T12:44:17;4.13;;;2.40;;
29214;SDS011;16252;49.816;7.964;2023-04-25T12:46:42;5.93;;;2.85;;
29214;SDS011;16252;49.816;7.964;2023-04-25T12:49:07;5.50;;;2.95;;
29214;SDS011;16252;49.816;7.964;2023-04-25T12:51:34;4.80;;;2.83;;
29214;SDS011;16252;49.816;7.964;2023-04-25T12:54:00;3.42;;;2.30;;
29214;SDS011;16252;49.816;7.964;2023-04-25T12:56:26;3.85;;;1.92;;
29214;SDS011;16252;49.816;7.964;2023-04-25T12:58:52;4.97;;;2.13;;
29214;SDS011;16252;49.816;7.964;2023-04-25T13:01:18;3.53;;;2.00;;
29214;SDS011;16252;49.816;7.964;2023-04-25T13:03:44;5.68;;;2.40;;
29214;SDS011;16252;49.816;7.964;2023-04-25T13:06:09;3.88;;;2.30;;
29214;SDS011;16252;49.816;7.964;2023-04-25T13:08:35;5.70;;;1.77;;
29214;SDS011;16252;49.816;7.964;2023-04-25T13:11:01;5.35;;;1.88;;
29214;SDS011;16252;49.816;7.964;2023-04-25T13:13:27;4.63;;;1.90;;
29214;SDS011;16252;49.816;7.964;2023-04-25T13:15:53;4.35;;;2.20;;
29214;SDS011;16252;49.816;7.964;2023-04-25T13:18:18;2.55;;;1.80;;
29214;SDS011;16252;49.816;7.964;2023-04-25T13:20:44;3.70;;;1.80;;
29214;SDS011;16252;49.816;7.964;2023-04-25T13:23:11;3.42;;;1.80;;
29214;SDS011;16252;49.816;7.964;2023-04-25T13:25:36;4.18;;;1.85;;
29214;SDS011;16252;49.816;7.964;2023-04-25T13:28:01;3.75;;;1.70;;
29214;SDS011;16252;49.816;7.964;2023-04-25T13:30:27;2.83;;;1.65;;
29214;SDS011;16252;49.816;7.964;2023-04-25T13:32:52;3.50;;;1.92;;
29214;SDS011;16252;49.816;7.964;2023-04-25T13:35:19;5.10;;;2.15;;
29214;SDS011;16252;49.816;7.964;2023-04-25T13:37:44;3.85;;;1.80;;
29214;SDS011;16252;49.816;7.964;2023-04-25T13:40:10;3.30;;;1.80;;
29214;SDS011;16252;49.816;7.964;2023-04-25T13:42:39;5.78;;;1.98;;
29214;SDS011;16252;49.816;7.964;2023-04-25T13:45:05;2.58;;;1.35;;
29214;SDS011;16252;49.816;7.964;2023-04-25T13:47:31;2.85;;;1.55;;
29214;SDS011;16252;49.816;7.964;2023-04-25T13:49:56;4.85;;;1.55;;
29214;SDS011;16252;49.816;7.964;2023-04-25T13:52:22;4.43;;;1.75;;
29214;SDS011;16252;49.816;7.964;2023-04-25T13:54:49;5.18;;;1.90;;
29214;SDS011;16252;49.816;7.964;2023-04-25T13:57:14;2.42;;;1.50;;
29214;SDS011;16252;49.816;7.964;2023-04-25T13:59:40;2.47;;;1.50;;
29214;SDS011;16252;49.816;7.964;2023-04-25T14:02:06;3.13;;;1.40;;
29214;SDS011;16252;49.816;7.964;2023-04-25T14:04:32;4.05;;;1.40;;
29214;SDS011;16252;49.816;7.964;2023-04-25T14:06:57;2.22;;;1.70;;
29214;SDS011;16252;49.816;7.964;2023-04-25T14:09:23;5.05;;;1.95;;
29214;SDS011;16252;49.816;7.964;2023-04-25T14:11:51;1.95;;;1.38;;
29214;SDS011;16252;49.816;7.964;2023-04-25T14:14:17;3.30;;;1.58;;
29214;SDS011;16252;49.816;7.964;2023-04-25T14:16:42;4.05;;;1.70;;
29214;SDS011;16252;49.816;7.964;2023-04-25T14:19:08;3.03;;;1.33;;
29214;SDS011;16252;49.816;7.964;2023-04-25T14:21:33;3.03;;;1.48;;
29214;SDS011;16252;49.816;7.964;2023-04-25T14:23:58;6.22;;;2.30;;
29214;SDS011;16252;49.816;7.964;2023-04-25T14:26:23;4.78;;;1.95;;
29214;SDS011;16252;49.816;7.964;2023-04-25T14:28:50;3.63;;;1.52;;
29214;SDS011;16252;49.816;7.964;2023-04-25T14:31:16;6.47;;;1.85;;
29214;SDS011;16252;49.816;7.964;2023-04-25T14:33:41;3.40;;;1.52;;
29214;SDS011;16252;49.816;7.964;2023-04-25T14:36:08;3.58;;;1.80;;
29214;SDS011;16252;49.816;7.964;2023-04-25T14:38:33;4.47;;;1.63;;
29214;SDS011;16252;49.816;7.964;2023-04-25T14:40:58;3.88;;;1.35;;
29214;SDS011;16252;49.816;7.964;2023-04-25T14:43:24;5.30;;;1.65;;
29214;SDS011;16252;49.816;7.964;2023-04-25T14:45:49;4.22;;;1.50;;
29214;SDS011;16252;49.816;7.964;2023-04-25T14:48:15;4.15;;;1.33;;
29214;SDS011;16252;49.816;7.964;2023-04-25T14:50:42;2.58;;;1.55;;
29214;SDS011;16252;49.816;7.964;2023-04-25T14:53:08;2.65;;;1.20;;
29214;SDS011;16252;49.816;7.964;2023-04-25T14:55:33;3.42;;;1.15;;
29214;SDS011;16252;49.816;7.964;2023-04-25T14:57:58;3.42;;;1.38;;
29214;SDS011;16252;49.816;7.964;2023-04-25T15:00:23;5.15;;;1.80;;
29214;SDS011;16252;49.816;7.964;2023-04-25T15:02:50;4.18;;;1.35;;
29214;SDS011;16252;49.816;7.964;2023-04-25T15:05:15;3.15;;;1.40;;
29214;SDS011;16252;49.816;7.964;2023-04-25T15:07:41;2.45;;;1.50;;
29214;SDS011;16252;49.816;7.964;2023-04-25T15:10:07;4.32;;;1.55;;
29214;SDS011;16252;49.816;7.964;2023-04-25T15:12:38;3.55;;;1.30;;
29214;SDS011;16252;49.816;7.964;2023-04-25T15:15:03;2.65;;;1.38;;
29214;SDS011;16252;49.816;7.964;2023-04-25T15:17:30;5.00;;;1.67;;
29214;SDS011;16252;49.816;7.964;2023-04-25T15:19:56;4.00;;;1.65;;
29214;SDS011;16252;49.816;7.964;2023-04-25T15:22:21;5.05;;;1.70;;
29214;SDS011;16252;49.816;7.964;2023-04-25T15:24:47;6.38;;;2.05;;
29214;SDS011;16252;49.816;7.964;2023-04-25T15:27:12;5.38;;;1.58;;
29214;SDS011;16252;49.816;7.964;2023-04-25T15:29:37;3.15;;;1.42;;
29214;SDS011;16252;49.816;7.964;2023-04-25T15:32:03;3.50;;;1.50;;
29214;SDS011;16252;49.816;7.964;2023-04-25T15:34:28;4.95;;;1.55;;
29214;SDS011;16252;49.816;7.964;2023-04-25T15:36:53;4.32;;;1.63;;
29214;SDS011;16252;49.816;7.964;2023-04-25T15:39:19;3.42;;;1.50;;
29214;SDS011;16252;49.816;7.964;2023-04-25T15:41:45;4.85;;;1.77;;
29214;SDS011;16252;49.816;7.964;2023-04-25T15:44:11;8.65;;;1.70;;
29214;SDS011;16252;49.816;7.964;2023-04-25T15:46:37;5.55;;;1.52;;
29214;SDS011;16252;49.816;7.964;2023-04-25T15:49:03;3.78;;;1.63;;
29214;SDS011;16252;49.816;7.964;2023-04-25T15:51:28;3.55;;;1.40;;